Kingsville, Missouri
Current Conditions -  °F | °C
As of 6:15 AM on Friday 24 Oct 2014 (Local Time) from KRCM Reporting Station
Haze Haze  
Wind Chill: 54°   Ceiling: 200
Heat Index: 54°   Visibility: 0.75mi
Dew Point: 54°   Wind: 3mph
Humidity: 100%   Direction: 190°S
Pressure: 30.08"   Gusts: NA
Location:  38.74°N, 94.07°W
Report Text: KRCM 241115Z AUTO 19003KT 3/4SM BR OVC002 12/12 A3008 RMK AO2
Loading
Personal Weather Stations






























Interactive Weather Map
Tropical Storm Tracking
New forecast layout! Learn more

10-Day Weather Forecast

Advertisements
Track Severe Weather on mobile